createdAt,value
2018-12-18T00:13:12.842Z,102207.78
2018-12-18T00:15:54.971Z,102212.95
2018-12-18T00:18:30.092Z,102211.61
2018-12-18T00:20:58.508Z,102216.40
2018-12-18T00:23:26.823Z,102218.06
2018-12-18T00:25:55.101Z,102220.75
2018-12-18T00:28:23.308Z,102231.13
2018-12-18T00:30:51.518Z,102220.23
2018-12-18T00:33:19.959Z,102221.48
2018-12-18T00:35:48.365Z,102218.83
2018-12-18T00:38:17.114Z,102220.62
2018-12-18T00:40:45.798Z,102226.69
2018-12-18T00:43:14.285Z,102227.55
2018-12-18T00:45:43.071Z,102229.30
2018-12-18T00:48:11.770Z,102232.66
2018-12-18T00:50:40.439Z,102232.69
2018-12-18T00:53:08.773Z,102226.49
2018-12-18T00:55:36.993Z,102222.19
2018-12-18T00:58:05.236Z,102218.16
2018-12-18T01:00:45.383Z,102222.12
2018-12-18T01:03:17.699Z,102223.84
2018-12-18T01:05:46.402Z,102225.12
2018-12-18T01:08:15.370Z,102225.44
2018-12-18T01:10:44.000Z,102220.20
2018-12-18T01:13:13.333Z,102227.51
2018-12-18T01:15:41.941Z,102234.89
2018-12-18T01:18:10.806Z,102226.51
2018-12-18T01:20:39.184Z,102232.09
2018-12-18T01:23:07.660Z,102230.23
2018-12-18T01:25:36.080Z,102239.03
2018-12-18T01:28:04.331Z,102245.47
2018-12-18T01:30:32.538Z,102243.23
2018-12-18T01:33:01.035Z,102242.19
2018-12-18T01:35:29.231Z,102244.41
2018-12-18T01:37:57.402Z,102243.50
2018-12-18T01:40:25.607Z,102249.12
2018-12-18T01:42:53.835Z,102239.39
2018-12-18T01:45:24.195Z,102240.78
2018-12-18T01:47:52.735Z,102243.52
2018-12-18T01:50:20.923Z,102246.96
2018-12-18T01:52:49.118Z,102244.45
2018-12-18T01:55:17.408Z,102246.55
2018-12-18T01:57:45.575Z,102244.34
2018-12-18T02:00:14.122Z,102245.20
2018-12-18T02:02:45.470Z,102247.67
2018-12-18T02:05:14.184Z,102249.39
2018-12-18T02:07:42.702Z,102252.54
2018-12-18T02:10:10.961Z,102255.54
2018-12-18T02:12:39.160Z,102248.64
2018-12-18T02:15:07.714Z,102253.81
2018-12-18T02:17:35.964Z,102252.50
2018-12-18T02:20:05.094Z,102251.53
2018-12-18T02:22:33.261Z,102253.73
2018-12-18T02:25:01.478Z,102255.84
2018-12-18T02:27:29.641Z,102250.25
2018-12-18T02:29:57.941Z,102246.70
2018-12-18T02:32:26.501Z,102250.55
2018-12-18T02:34:55.001Z,102249.36
2018-12-18T02:37:23.326Z,102256.37
2018-12-18T02:39:51.651Z,102256.37
2018-12-18T02:42:26.830Z,102258.50
2018-12-18T02:44:55.576Z,102259.28
2018-12-18T02:47:24.119Z,102254.38
2018-12-18T02:49:52.981Z,102256.20
2018-12-18T02:52:21.880Z,102264.90
2018-12-18T02:54:51.584Z,102263.92
2018-12-18T02:57:20.010Z,102268.23
2018-12-18T02:59:48.665Z,102274.37
2018-12-18T03:02:17.922Z,102277.90
2018-12-18T03:04:46.220Z,102278.77
2018-12-18T03:07:14.586Z,102275.53
2018-12-18T03:09:42.780Z,102277.00
2018-12-18T03:12:11.045Z,102277.73
2018-12-18T03:14:39.576Z,102275.45
2018-12-18T03:17:08.163Z,102282.98
2018-12-18T03:22:29.292Z,102276.89
2018-12-18T03:24:57.516Z,102278.60
2018-12-18T03:27:25.710Z,102277.75
2018-12-18T03:29:53.884Z,102277.73
2018-12-18T03:32:24.969Z,102282.09
2018-12-18T03:34:53.258Z,102279.06
2018-12-18T03:37:21.478Z,102275.57
2018-12-18T03:39:49.749Z,102276.44
2018-12-18T03:42:17.973Z,102275.53
2018-12-18T03:44:46.134Z,102281.23
2018-12-18T03:47:14.348Z,102285.58
2018-12-18T03:49:42.547Z,102285.46
2018-12-18T03:52:10.726Z,102277.63
2018-12-18T03:54:38.974Z,102282.84
2018-12-18T03:57:07.213Z,102285.46
2018-12-18T03:59:35.478Z,102294.60
2018-12-18T04:02:03.876Z,102285.01
2018-12-18T04:04:35.552Z,102295.88
2018-12-18T04:07:02.324Z,102295.88
2018-12-18T04:09:30.525Z,102287.55
2018-12-18T04:12:04.085Z,102290.55
2018-12-18T04:14:32.318Z,102298.37
2018-12-18T04:17:00.614Z,102295.30
2018-12-18T04:19:28.855Z,102291.37
2018-12-18T04:21:57.020Z,102294.44
2018-12-18T04:24:25.274Z,102295.31
2018-12-18T04:26:53.481Z,102290.06
2018-12-18T04:29:21.684Z,102294.45
2018-12-18T04:31:50.061Z,102289.64
2018-12-18T04:34:18.207Z,102289.35
2018-12-18T04:37:49.153Z,102307.19
2018-12-18T04:40:17.462Z,102308.42
2018-12-18T04:42:45.692Z,102295.05
2018-12-18T04:45:13.916Z,102310.11
2018-12-18T04:48:00.424Z,102302.77
2018-12-18T04:50:28.621Z,102297.52
2018-12-18T04:52:56.805Z,102296.66
2018-12-18T04:55:25.102Z,102301.05
2018-12-18T04:57:53.261Z,102301.05
2018-12-18T05:00:21.717Z,102308.02
2018-12-18T05:02:50.050Z,102312.85
2018-12-18T05:05:18.373Z,102308.58
2018-12-18T05:07:46.617Z,102312.41
2018-12-18T05:10:14.833Z,102312.93
2018-12-18T05:12:43.152Z,102313.80
2018-12-18T05:15:11.353Z,102312.93
2018-12-18T05:17:39.594Z,102308.99
2018-12-18T05:20:08.058Z,102298.98
2018-12-18T05:22:36.221Z,102301.16
2018-12-18T05:25:04.537Z,102312.52
2018-12-18T05:27:32.733Z,102308.17
2018-12-18T05:30:02.175Z,102316.91
2018-12-18T05:32:30.433Z,102307.31
2018-12-18T05:34:58.701Z,102310.02
2018-12-18T05:37:26.907Z,102310.02
2018-12-18T05:39:55.168Z,102316.57
2018-12-18T05:42:23.350Z,102311.77
2018-12-18T05:44:51.585Z,102319.68
2018-12-18T05:47:19.815Z,102320.12
2018-12-18T05:49:51.978Z,102324.52
2018-12-18T05:52:31.831Z,102322.75
2018-12-18T05:55:26.618Z,102334.56
2018-12-18T05:57:55.309Z,102327.55
2018-12-18T06:00:27.801Z,102323.12
2018-12-18T06:02:57.441Z,102330.17
2018-12-18T06:05:37.817Z,102330.63
2018-12-18T06:14:12.144Z,102341.91
2018-12-18T06:19:43.683Z,102343.74
2018-12-18T06:22:11.964Z,102350.34
2018-12-18T06:24:40.179Z,102356.94
2018-12-18T06:27:14.272Z,102350.30
2018-12-18T06:29:43.068Z,102347.67
2018-12-18T06:32:11.456Z,102354.23
2018-12-18T06:34:39.705Z,102351.61
2018-12-18T06:37:08.619Z,102344.64
2018-12-18T06:39:38.930Z,102349.44
2018-12-18T06:42:07.142Z,102355.09
2018-12-18T06:44:35.320Z,102348.54
2018-12-18T06:47:03.632Z,102364.28
2018-12-18T06:49:31.912Z,102371.25
2018-12-18T06:54:50.642Z,102376.91
2018-12-18T06:57:25.206Z,102376.53
2018-12-18T07:03:01.205Z,102377.81
2018-12-18T07:05:29.370Z,102375.71
2018-12-18T07:07:57.808Z,102370.42
2018-12-18T07:10:26.209Z,102367.35
2018-12-18T07:12:54.443Z,102368.22
2018-12-18T07:15:23.513Z,102372.60
2018-12-18T07:17:51.784Z,102378.34
2018-12-18T07:20:20.010Z,102374.33
2018-12-18T07:22:48.205Z,102376.02
2018-12-18T07:25:16.383Z,102373.80
2018-12-18T07:27:50.113Z,102383.44
2018-12-18T07:30:18.628Z,102383.06
2018-12-18T07:32:48.311Z,102388.72
2018-12-18T07:35:23.195Z,102384.78
2018-12-18T07:37:49.933Z,102389.62
2018-12-18T07:42:52.988Z,102390.86
2018-12-18T07:45:38.268Z,102400.83
2018-12-18T07:48:07.313Z,102396.48
2018-12-18T07:50:35.658Z,102400.83
2018-12-18T07:53:07.188Z,102408.67
2018-12-18T07:55:35.656Z,102412.08
2018-12-18T07:58:04.020Z,102403.49
2018-12-18T08:00:33.268Z,102406.91
2018-12-18T08:03:01.904Z,102410.39
2018-12-18T08:05:30.212Z,102419.61
2018-12-18T08:07:58.479Z,102417.81
2018-12-18T08:10:28.707Z,102425.66
2018-12-18T08:12:56.922Z,102420.81
2018-12-18T08:15:25.215Z,102419.88
2018-12-18T08:17:54.436Z,102424.27
2018-12-18T08:20:23.341Z,102424.27
2018-12-18T08:22:51.775Z,102417.26
2018-12-18T08:25:20.591Z,102421.57
2018-12-18T08:27:49.113Z,102419.80
2018-12-18T08:30:17.695Z,102429.38
2018-12-18T08:32:46.246Z,102430.83
2018-12-18T08:35:15.943Z,102425.58
2018-12-18T08:37:44.468Z,102427.75
2018-12-18T08:40:12.770Z,102424.75
2018-12-18T08:42:41.464Z,102432.21
2018-12-18T08:45:09.974Z,102433.45
2018-12-18T08:47:38.508Z,102436.49
2018-12-18T08:50:11.043Z,102430.80
2018-12-18T08:52:39.663Z,102437.77
2018-12-18T08:55:11.798Z,102428.55
2018-12-18T08:57:41.104Z,102432.00
2018-12-18T09:00:10.342Z,102434.55
2018-12-18T09:02:38.509Z,102436.80
2018-12-18T09:05:07.210Z,102439.34
2018-12-18T09:07:35.457Z,102438.90
2018-12-18T09:10:05.687Z,102439.42
2018-12-18T09:12:33.870Z,102437.20
2018-12-18T09:15:06.273Z,102434.17
2018-12-18T09:17:39.977Z,102435.00
2018-12-18T09:20:08.333Z,102432.83
2018-12-18T09:22:36.771Z,102411.38
2018-12-18T09:25:05.886Z,102424.02
2018-12-18T09:27:34.338Z,102423.41
2018-12-18T09:30:02.554Z,102424.02
2018-12-18T09:32:30.930Z,102415.23
2018-12-18T09:34:59.225Z,102416.02
2018-12-18T09:37:28.396Z,102417.30
2018-12-18T09:39:56.586Z,102411.14
2018-12-18T09:42:30.305Z,102403.16
2018-12-18T09:44:58.513Z,102406.68
2018-12-18T09:47:27.257Z,102400.07
2018-12-18T09:50:01.617Z,102392.61
2018-12-18T09:52:29.790Z,102381.66
2018-12-18T09:54:57.936Z,102385.48
2018-12-18T09:57:31.702Z,102385.52
2018-12-18T10:00:00.004Z,102385.93
2018-12-18T10:02:28.257Z,102371.48
2018-12-18T10:04:56.494Z,102365.41
2018-12-18T10:07:25.189Z,102370.54
2018-12-18T10:09:53.941Z,102364.43
2018-12-18T10:12:27.964Z,102354.62
2018-12-18T10:14:56.766Z,102360.77
2018-12-18T10:17:25.084Z,102360.69
2018-12-18T10:19:54.064Z,102359.28
2018-12-18T10:22:22.947Z,102360.28
2018-12-18T10:24:51.567Z,102361.14
2018-12-18T10:27:19.830Z,102357.74
2018-12-18T10:29:48.650Z,102349.91
2018-12-18T10:32:16.958Z,102355.16
2018-12-18T10:34:45.194Z,102349.98
2018-12-18T10:37:13.538Z,102346.13
2018-12-18T10:39:42.576Z,102340.75
2018-12-18T10:42:11.123Z,102335.13
2018-12-18T10:44:39.646Z,102335.55
2018-12-18T10:47:08.498Z,102336.81
2018-12-18T10:49:37.422Z,102342.44
2018-12-18T10:52:05.834Z,102335.91
2018-12-18T10:54:34.257Z,102337.59
2018-12-18T10:57:02.785Z,102338.45
2018-12-18T10:59:31.698Z,102345.06
2018-12-18T11:02:03.810Z,102342.80
2018-12-18T11:04:33.027Z,102344.61
2018-12-18T11:07:02.395Z,102344.61
2018-12-18T11:09:31.235Z,102334.15
2018-12-18T11:14:52.969Z,102328.77
2018-12-18T11:17:21.693Z,102333.11
2018-12-18T11:19:52.506Z,102333.47
2018-12-18T11:22:20.760Z,102328.22
2018-12-18T11:24:48.972Z,102326.09
2018-12-18T11:27:17.214Z,102326.91
2018-12-18T11:29:45.424Z,102325.14
2018-12-18T11:32:13.646Z,102318.12
2018-12-18T11:34:41.932Z,102314.22
2018-12-18T11:37:10.119Z,102302.81
2018-12-18T11:39:39.406Z,102304.98
2018-12-18T11:42:07.665Z,102303.55
2018-12-18T11:44:36.254Z,102306.62
2018-12-18T11:47:05.369Z,102305.26
2018-12-18T11:49:33.561Z,102313.14
2018-12-18T11:52:02.752Z,102310.83
2018-12-18T11:54:31.092Z,102298.56
2018-12-18T11:57:00.077Z,102297.70
2018-12-18T11:59:29.075Z,102286.70
2018-12-18T12:01:57.762Z,102288.86
2018-12-18T12:04:26.755Z,102280.98
2018-12-18T12:06:55.382Z,102281.39
2018-12-18T12:09:24.115Z,102282.30
2018-12-18T12:11:53.525Z,102280.98
2018-12-18T12:14:22.529Z,102280.98
2018-12-18T12:16:51.172Z,102279.17
2018-12-18T12:19:20.139Z,102276.95
2018-12-18T12:21:49.406Z,102269.89
2018-12-18T12:24:17.839Z,102261.50
2018-12-18T12:26:52.084Z,102266.34
2018-12-18T12:29:20.289Z,102256.25
2018-12-18T12:31:48.486Z,102257.51
2018-12-18T12:34:16.668Z,102253.98
2018-12-18T12:36:44.869Z,102253.02
2018-12-18T12:39:13.067Z,102257.02
2018-12-18T12:41:41.820Z,102260.95
2018-12-18T12:44:10.559Z,102258.73
2018-12-18T12:46:39.244Z,102262.16
2018-12-18T12:49:10.578Z,102247.97
2018-12-18T12:51:40.422Z,102247.42
2018-12-18T12:54:09.108Z,102234.69
2018-12-18T12:56:37.694Z,102233.47
2018-12-18T12:59:06.329Z,102233.06
2018-12-18T13:01:34.714Z,102234.78
2018-12-18T13:04:10.620Z,102241.81
2018-12-18T13:09:40.659Z,102231.80
2018-12-18T13:12:09.059Z,102227.95
2018-12-18T13:14:47.880Z,102238.06
2018-12-18T13:17:17.068Z,102247.25
2018-12-18T13:19:46.425Z,102253.42
2018-12-18T13:22:23.631Z,102261.25
2018-12-18T13:25:02.600Z,102255.95
2018-12-18T13:27:35.166Z,102245.08
2018-12-18T13:30:09.080Z,102254.30
2018-12-18T13:32:37.827Z,102241.24
2018-12-18T13:35:06.178Z,102236.94
2018-12-18T13:37:34.409Z,102228.20
2018-12-18T13:40:02.668Z,102218.55
2018-12-18T13:42:31.509Z,102213.80
2018-12-18T13:44:59.826Z,102210.71
2018-12-18T13:47:28.531Z,102203.34
2018-12-18T13:49:57.225Z,102193.28
2018-12-18T13:52:26.062Z,102188.12
2018-12-18T13:54:54.317Z,102196.86
2018-12-18T13:57:23.761Z,102193.78
2018-12-18T13:59:52.306Z,102189.39
2018-12-18T14:02:21.480Z,102185.49
2018-12-18T14:04:49.691Z,102184.33
2018-12-18T14:07:17.963Z,102184.73
2018-12-18T14:09:46.354Z,102190.48
2018-12-18T14:12:15.204Z,102194.48
2018-12-18T14:14:43.372Z,102189.73
2018-12-18T14:17:11.613Z,102196.70
2018-12-18T14:19:39.855Z,102198.06
2018-12-18T14:22:08.114Z,102199.16
2018-12-18T14:24:36.367Z,102192.20
2018-12-18T14:27:04.718Z,102195.69
2018-12-18T14:29:32.905Z,102194.02
2018-12-18T14:32:01.875Z,102184.16
2018-12-18T14:34:30.214Z,102174.34
2018-12-18T14:36:59.471Z,102190.81
2018-12-18T14:39:31.776Z,102198.64
2018-12-18T14:42:00.047Z,102196.88
2018-12-18T14:44:28.275Z,102193.52
2018-12-18T14:46:56.481Z,102196.55
2018-12-18T14:49:26.089Z,102200.81
2018-12-18T14:57:46.518Z,102201.08
2018-12-18T15:00:16.268Z,102197.64
2018-12-18T15:02:45.350Z,102198.45
2018-12-18T15:05:15.353Z,102204.26
2018-12-18T15:21:19.815Z,102182.93
2018-12-18T15:26:45.860Z,102186.78
2018-12-18T15:29:25.723Z,102189.13
2018-12-18T15:32:04.762Z,102188.14
2018-12-18T15:34:33.655Z,102189.58
2018-12-18T15:37:02.588Z,102180.39
2018-12-18T15:39:32.750Z,102183.83
2018-12-18T15:42:02.047Z,102185.59
2018-12-18T15:47:24.057Z,102174.67
2018-12-18T15:49:52.660Z,102175.64
2018-12-18T15:52:21.486Z,102169.02
2018-12-18T15:54:52.213Z,102179.36
2018-12-18T15:57:21.865Z,102169.45
2018-12-18T15:59:50.788Z,102175.60
2018-12-18T16:02:36.224Z,102172.92
2018-12-18T16:12:20.787Z,102182.16
2018-12-18T16:14:49.107Z,102176.41
2018-12-18T16:17:17.385Z,102181.70
2018-12-18T16:19:46.157Z,102180.39
2018-12-18T16:22:14.969Z,102181.62
2018-12-18T16:24:43.790Z,102182.11
2018-12-18T16:27:12.457Z,102186.37
2018-12-18T16:29:41.408Z,102193.84
2018-12-18T16:35:05.842Z,102190.25
2018-12-18T16:37:34.125Z,102182.03
2018-12-18T16:40:02.432Z,102182.11
2018-12-18T16:42:30.697Z,102178.17
2018-12-18T16:44:59.490Z,102174.97
2018-12-18T16:47:27.692Z,102174.64
2018-12-18T16:49:55.926Z,102168.98
2018-12-18T16:52:24.196Z,102168.58
2018-12-18T16:54:58.874Z,102158.13
2018-12-18T16:57:30.164Z,102163.02
2018-12-18T17:05:34.402Z,102152.30
2018-12-18T17:08:09.202Z,102155.28
2018-12-18T17:10:37.798Z,102152.79
2018-12-18T17:13:06.017Z,102148.13
2018-12-18T17:15:34.268Z,102136.36
2018-12-18T17:18:02.428Z,102133.92
2018-12-18T17:20:30.708Z,102135.86
2018-12-18T17:22:59.010Z,102137.72
2018-12-18T17:25:27.345Z,102132.43
2018-12-18T17:27:55.621Z,102140.02
2018-12-18T17:30:23.975Z,102135.68
2018-12-18T17:32:52.304Z,102141.00
2018-12-18T17:35:20.761Z,102134.94
2018-12-18T17:37:48.943Z,102135.12
2018-12-18T17:40:17.205Z,102130.77
2018-12-18T17:42:45.370Z,102131.80
2018-12-18T17:45:13.896Z,102133.11
2018-12-18T17:48:53.789Z,102131.96
2018-12-18T17:51:24.734Z,102127.75
2018-12-18T17:53:53.000Z,102127.25
2018-12-18T17:56:21.320Z,102131.27
2018-12-18T17:58:49.737Z,102139.66
2018-12-18T18:01:18.053Z,102148.47
2018-12-18T18:03:46.469Z,102138.88
2018-12-18T18:06:15.275Z,102133.72
2018-12-18T18:08:43.607Z,102130.88
2018-12-18T18:11:12.448Z,102135.52
2018-12-18T18:16:45.826Z,102128.64
2018-12-18T18:32:38.623Z,102147.39
2018-12-18T18:35:15.415Z,102124.74
2018-12-18T18:44:04.687Z,102141.10
2018-12-18T18:46:32.967Z,102134.28
2018-12-18T18:49:01.251Z,102133.38
2018-12-18T18:51:30.449Z,102132.97
2018-12-18T18:53:58.789Z,102130.31
2018-12-18T18:56:27.268Z,102130.56
2018-12-18T18:58:55.457Z,102129.59
2018-12-18T19:01:24.569Z,102133.73
2018-12-18T19:03:54.681Z,102124.13
2018-12-18T19:06:26.339Z,102119.68
2018-12-18T19:08:55.949Z,102116.82
2018-12-18T19:11:24.838Z,102110.34
2018-12-18T19:13:53.093Z,102111.69
2018-12-18T19:16:21.352Z,102104.86
2018-12-18T19:18:49.704Z,102094.42
2018-12-18T19:21:17.872Z,102081.72
2018-12-18T19:23:46.221Z,102073.48
2018-12-18T21:51:45.972Z,101900.34
2018-12-18T21:54:14.550Z,101896.42
2018-12-18T21:56:43.000Z,101897.81
2018-12-18T21:59:11.409Z,101903.96
2018-12-18T22:01:39.813Z,101900.52
2018-12-18T22:04:17.052Z,101893.04
2018-12-18T22:06:45.756Z,101902.20
2018-12-18T22:09:14.269Z,101892.59
2018-12-18T22:11:42.453Z,101894.84
2018-12-18T22:14:10.628Z,101885.47
2018-12-18T22:16:39.087Z,101893.63
2018-12-18T22:19:07.284Z,101884.81
2018-12-18T22:21:35.500Z,101881.76
2018-12-18T22:24:04.990Z,101883.30
2018-12-18T22:26:33.200Z,101877.39
2018-12-18T22:29:01.373Z,101872.00
2018-12-18T22:31:29.569Z,101872.32
2018-12-18T22:33:57.936Z,101867.90
2018-12-18T22:36:26.082Z,101865.35
2018-12-18T22:38:54.477Z,101864.91
2018-12-18T22:41:22.652Z,101853.63
2018-12-18T22:43:51.810Z,101851.34
2018-12-18T22:46:20.142Z,101855.77
2018-12-18T22:48:48.535Z,101852.64
2018-12-18T22:51:16.745Z,101851.91
2018-12-18T22:53:45.046Z,101844.90
2018-12-18T22:56:13.195Z,101837.16
2018-12-18T22:58:43.000Z,101832.73
2018-12-18T23:01:18.225Z,101825.89
2018-12-18T23:03:46.872Z,101818.08
2018-12-18T23:06:15.087Z,101811.02
2018-12-18T23:08:43.284Z,101796.17
2018-12-18T23:11:12.376Z,101791.27
2018-12-18T23:13:40.687Z,101785.67
2018-12-18T23:16:08.913Z,101779.58
2018-12-18T23:18:37.079Z,101777.39
2018-12-18T23:21:05.252Z,101770.95
2018-12-18T23:23:33.458Z,101777.83
2018-12-18T23:26:01.701Z,101767.42
2018-12-18T23:28:29.893Z,101773.09
2018-12-18T23:30:58.124Z,101762.20
2018-12-18T23:33:26.393Z,101757.55
2018-12-18T23:35:54.615Z,101744.11
2018-12-18T23:38:22.810Z,101750.74
2018-12-18T23:40:51.199Z,101745.62
2018-12-18T23:43:19.344Z,101733.70
2018-12-18T23:45:47.524Z,101730.27
2018-12-18T23:48:16.924Z,101723.30
2018-12-18T23:50:45.052Z,101715.50
2018-12-18T23:53:13.460Z,101712.41
2018-12-18T23:55:41.618Z,101710.27
2018-12-18T23:58:09.748Z,101702.92
